createdAt,value
2022-12-11T00:01:42.406Z,4.10
2022-12-11T00:04:10.480Z,4.00
2022-12-11T00:06:39.845Z,4.20
2022-12-11T00:09:08.176Z,3.90
2022-12-11T00:11:36.296Z,4.10
2022-12-11T00:14:04.672Z,4.10
2022-12-11T00:16:32.697Z,4.10
2022-12-11T00:19:00.864Z,4.10
2022-12-11T00:21:29.067Z,4.10
2022-12-11T00:23:58.653Z,4.10
2022-12-11T00:26:27.003Z,4.10
2022-12-11T00:28:57.710Z,4.10
2022-12-11T00:31:25.862Z,4.00
2022-12-11T00:33:54.164Z,4.10
2022-12-11T00:36:24.082Z,4.10
2022-12-11T00:38:52.845Z,4.10
2022-12-11T00:41:22.695Z,4.10
2022-12-11T00:43:50.939Z,4.00
2022-12-11T00:46:19.631Z,4.10
2022-12-11T00:48:52.389Z,4.00
2022-12-11T00:51:20.542Z,4.00
2022-12-11T00:53:49.337Z,3.90
2022-12-11T00:56:19.306Z,3.90
2022-12-11T00:58:49.706Z,4.00
2022-12-11T01:01:19.542Z,4.00
2022-12-11T01:03:48.721Z,4.00
2022-12-11T01:06:18.894Z,4.00
2022-12-11T01:08:48.173Z,4.10
2022-12-11T01:11:16.681Z,4.10
2022-12-11T01:13:46.280Z,4.10
2022-12-11T01:16:17.230Z,4.10
2022-12-11T01:18:47.560Z,4.20
2022-12-11T01:21:16.702Z,4.00
2022-12-11T01:23:45.069Z,4.00
2022-12-11T01:26:16.052Z,4.00
2022-12-11T01:28:45.115Z,4.00
2022-12-11T01:31:19.260Z,4.00
2022-12-11T01:33:47.403Z,4.00
2022-12-11T01:36:18.847Z,4.00
2022-12-11T01:38:47.235Z,4.00
2022-12-11T01:41:15.768Z,4.00
2022-12-11T01:44:06.436Z,4.00
2022-12-11T01:46:37.673Z,3.90
2022-12-11T01:49:09.985Z,3.90
2022-12-11T01:51:42.218Z,3.80
2022-12-11T01:54:14.656Z,3.80
2022-12-11T01:56:44.263Z,3.80
2022-12-11T01:59:14.606Z,3.80
2022-12-11T02:01:52.649Z,3.80
2022-12-11T02:04:21.987Z,3.80
2022-12-11T02:06:52.589Z,3.80
2022-12-11T02:09:23.369Z,3.80
2022-12-11T02:11:58.452Z,3.80
2022-12-11T02:14:33.882Z,3.80
2022-12-11T02:17:08.323Z,3.90
2022-12-11T02:19:50.284Z,3.90
2022-12-11T02:22:31.289Z,4.00
2022-12-11T02:25:13.974Z,3.90
2022-12-11T02:27:46.790Z,4.10
2022-12-11T02:30:21.797Z,4.20
2022-12-11T02:32:58.532Z,3.90
2022-12-11T02:35:31.808Z,3.90
2022-12-11T02:38:06.476Z,3.90
2022-12-11T02:40:38.354Z,3.80
2022-12-11T02:43:09.904Z,3.90
2022-12-11T02:45:41.746Z,3.90
2022-12-11T02:48:11.985Z,3.90
2022-12-11T02:50:45.375Z,3.90
2022-12-11T02:53:17.037Z,3.90
2022-12-11T02:55:49.514Z,3.90
2022-12-11T02:58:22.972Z,3.90
2022-12-11T03:00:52.580Z,3.90
2022-12-11T03:03:21.020Z,3.80
2022-12-11T03:05:49.461Z,3.90
2022-12-11T03:08:18.493Z,4.00
2022-12-11T03:10:47.126Z,3.90
2022-12-11T03:13:20.859Z,3.90
2022-12-11T03:16:06.734Z,3.90
2022-12-11T03:18:41.638Z,3.90
2022-12-11T03:21:15.671Z,3.90
2022-12-11T03:23:51.391Z,3.80
2022-12-11T03:26:24.310Z,3.80
2022-12-11T03:28:59.260Z,3.80
2022-12-11T03:31:36.245Z,3.80
2022-12-11T03:34:12.138Z,3.80
2022-12-11T03:36:41.368Z,3.80
2022-12-11T03:39:14.291Z,4.00
2022-12-11T03:41:52.582Z,3.80
2022-12-11T03:44:24.144Z,3.80
2022-12-11T03:46:57.039Z,3.80
2022-12-11T03:49:28.931Z,3.80
2022-12-11T03:52:02.140Z,3.80
2022-12-11T03:54:31.491Z,3.80
2022-12-11T03:57:05.226Z,3.80
2022-12-11T03:59:33.457Z,3.80
2022-12-11T04:02:10.794Z,3.80
2022-12-11T04:04:40.614Z,3.80
2022-12-11T04:07:08.787Z,4.00
2022-12-11T04:09:39.542Z,3.80
2022-12-11T04:12:13.856Z,3.80
2022-12-11T04:14:59.308Z,3.90
2022-12-11T04:17:46.582Z,3.90
2022-12-11T04:20:32.238Z,3.90
2022-12-11T04:23:17.793Z,4.00
2022-12-11T04:25:45.823Z,4.00
2022-12-11T04:28:13.832Z,3.90
2022-12-11T04:30:42.065Z,3.90
2022-12-11T04:33:11.540Z,4.00
2022-12-11T04:35:41.882Z,3.90
2022-12-11T04:38:09.967Z,4.10
2022-12-11T04:40:38.160Z,3.90
2022-12-11T04:43:06.287Z,3.90
2022-12-11T04:45:35.810Z,3.90
2022-12-11T04:48:03.822Z,4.00
2022-12-11T04:50:33.280Z,3.80
2022-12-11T04:53:01.303Z,3.80
2022-12-11T04:55:29.356Z,3.80
2022-12-11T04:57:59.783Z,3.80
2022-12-11T05:00:29.018Z,3.80
2022-12-11T05:02:57.251Z,3.80
2022-12-11T05:05:25.419Z,3.70
2022-12-11T05:07:54.910Z,3.70
2022-12-11T05:10:23.284Z,3.60
2022-12-11T05:12:51.280Z,3.80
2022-12-11T05:15:19.760Z,3.70
2022-12-11T05:17:47.868Z,3.70
2022-12-11T05:20:18.152Z,3.70
2022-12-11T05:22:46.254Z,3.70
2022-12-11T05:25:15.888Z,3.70
2022-12-11T05:27:46.035Z,3.70
2022-12-11T05:30:16.511Z,3.70
2022-12-11T05:32:44.755Z,3.80
2022-12-11T05:35:16.005Z,3.80
2022-12-11T05:37:44.639Z,3.70
2022-12-11T05:40:13.815Z,3.70
2022-12-11T05:42:43.246Z,3.70
2022-12-11T05:45:12.423Z,3.70
2022-12-11T05:47:40.587Z,3.70
2022-12-11T05:50:09.499Z,3.50
2022-12-11T05:52:37.430Z,3.70
2022-12-11T05:55:05.816Z,3.70
2022-12-11T05:57:34.162Z,3.70
2022-12-11T06:00:03.590Z,3.70
2022-12-11T06:02:31.901Z,3.80
2022-12-11T06:05:00.130Z,3.70
2022-12-11T06:07:28.298Z,3.70
2022-12-11T06:09:58.134Z,3.80
2022-12-11T06:12:26.325Z,3.80
2022-12-11T06:14:57.912Z,3.80
2022-12-11T06:17:28.825Z,3.80
2022-12-11T06:19:56.961Z,3.70
2022-12-11T06:22:24.962Z,3.80
2022-12-11T06:24:53.004Z,3.80
2022-12-11T06:27:20.979Z,3.80
2022-12-11T06:29:48.994Z,3.80
2022-12-11T06:32:16.969Z,3.80
2022-12-11T06:34:46.468Z,3.80
2022-12-11T06:37:14.483Z,3.80
2022-12-11T06:39:42.664Z,3.80
2022-12-11T06:42:10.833Z,4.00
2022-12-11T06:44:39.057Z,3.90
2022-12-11T06:47:08.120Z,3.90
2022-12-11T06:49:38.268Z,4.10
2022-12-11T06:52:16.605Z,3.90
2022-12-11T06:54:46.439Z,3.90
2022-12-11T06:57:14.565Z,3.80
2022-12-11T06:59:42.647Z,3.80
2022-12-11T07:02:15.031Z,3.80
2022-12-11T07:04:43.932Z,3.70
2022-12-11T07:07:13.888Z,3.70
2022-12-11T07:09:42.562Z,3.70
2022-12-11T07:12:10.606Z,3.70
2022-12-11T07:14:39.557Z,3.60
2022-12-11T07:17:07.761Z,3.60
2022-12-11T07:19:35.897Z,3.70
2022-12-11T07:22:05.726Z,3.70
2022-12-11T07:24:38.205Z,3.70
2022-12-11T07:27:12.067Z,3.70
2022-12-11T07:29:40.201Z,3.70
2022-12-11T07:32:08.335Z,3.70
2022-12-11T07:34:36.508Z,3.70
2022-12-11T07:37:04.773Z,3.70
2022-12-11T07:39:34.251Z,3.70
2022-12-11T07:42:04.734Z,3.70
2022-12-11T07:44:33.039Z,3.70
2022-12-11T07:47:01.184Z,3.70
2022-12-11T07:49:30.205Z,3.70
2022-12-11T07:52:01.263Z,3.70
2022-12-11T07:54:32.231Z,3.70
2022-12-11T07:57:03.849Z,3.70
2022-12-11T07:59:32.116Z,3.60
2022-12-11T08:02:00.281Z,3.70
2022-12-11T08:04:28.506Z,3.80
2022-12-11T08:06:58.665Z,3.70
2022-12-11T08:09:26.696Z,3.60
2022-12-11T08:11:54.764Z,3.70
2022-12-11T08:14:24.668Z,3.70
2022-12-11T08:16:53.134Z,4.00
2022-12-11T08:19:21.363Z,3.80
2022-12-11T08:21:49.465Z,3.90
2022-12-11T08:24:20.640Z,3.90
2022-12-11T08:26:49.651Z,4.00
2022-12-11T08:29:17.859Z,3.90
2022-12-11T08:31:47.340Z,3.90
2022-12-11T08:34:15.438Z,3.90
2022-12-11T08:36:44.305Z,3.90
2022-12-11T08:39:15.106Z,3.90
2022-12-11T08:41:43.388Z,3.90
2022-12-11T08:44:16.518Z,3.90
2022-12-11T08:46:46.763Z,4.00
2022-12-11T08:49:14.859Z,4.00
2022-12-11T08:51:42.979Z,4.00
2022-12-11T08:54:12.480Z,4.00
2022-12-11T08:56:41.051Z,3.80
2022-12-11T08:59:09.464Z,4.00
2022-12-11T09:01:37.643Z,3.90
2022-12-11T09:04:07.415Z,3.90
2022-12-11T09:06:35.441Z,4.00
2022-12-11T09:09:03.865Z,3.90
2022-12-11T09:11:34.368Z,4.10
2022-12-11T09:14:07.366Z,4.00
2022-12-11T09:16:40.023Z,4.00
2022-12-11T09:19:13.769Z,4.00
2022-12-11T09:21:42.868Z,4.00
2022-12-11T09:24:13.083Z,4.00
2022-12-11T09:26:41.845Z,4.00
2022-12-11T09:29:10.292Z,3.90
2022-12-11T09:31:38.889Z,4.10
2022-12-11T09:34:11.418Z,4.10
2022-12-11T09:36:40.692Z,4.10
2022-12-11T09:39:10.456Z,4.10
2022-12-11T09:41:40.560Z,4.20
2022-12-11T09:44:21.006Z,4.30
2022-12-11T09:46:49.975Z,4.20
2022-12-11T09:49:36.234Z,4.20
2022-12-11T09:52:12.320Z,4.20
2022-12-11T09:54:46.550Z,4.20
2022-12-11T09:57:35.856Z,4.40
2022-12-11T10:00:22.589Z,4.30
2022-12-11T10:03:09.029Z,4.40
2022-12-11T10:05:47.605Z,4.40
2022-12-11T10:08:25.265Z,4.30
2022-12-11T10:10:58.638Z,4.40
2022-12-11T10:13:37.127Z,4.30
2022-12-11T10:16:13.563Z,4.30
2022-12-11T10:18:42.145Z,4.40
2022-12-11T10:21:13.601Z,4.40
2022-12-11T10:23:47.235Z,4.40
2022-12-11T10:26:19.525Z,4.40
2022-12-11T10:28:48.246Z,4.40
2022-12-11T10:31:21.990Z,4.40
2022-12-11T10:34:00.201Z,4.40
2022-12-11T10:36:31.947Z,4.60
2022-12-11T10:39:01.069Z,4.50
2022-12-11T10:41:39.272Z,4.50
2022-12-11T10:44:17.863Z,4.60
2022-12-11T10:46:46.751Z,4.70
2022-12-11T10:49:30.217Z,4.60
2022-12-11T10:52:10.814Z,4.60
2022-12-11T10:54:41.984Z,4.70
2022-12-11T10:57:11.692Z,4.80
2022-12-11T10:59:49.607Z,4.70
2022-12-11T11:02:24.160Z,4.70
2022-12-11T11:04:57.575Z,4.70
2022-12-11T11:07:29.896Z,4.90
2022-12-11T11:10:17.577Z,4.70
2022-12-11T11:12:48.260Z,4.80
2022-12-11T11:15:21.403Z,4.80
2022-12-11T11:17:55.424Z,4.80
2022-12-11T11:20:29.191Z,4.80
2022-12-11T11:23:02.628Z,4.80
2022-12-11T11:25:35.531Z,4.80
2022-12-11T11:28:06.408Z,4.90
2022-12-11T11:30:40.844Z,4.90
2022-12-11T11:33:18.424Z,4.90
2022-12-11T11:35:54.380Z,5.00
2022-12-11T11:38:27.927Z,4.90
2022-12-11T11:41:06.627Z,4.90
2022-12-11T11:43:45.098Z,4.80
2022-12-11T11:46:20.150Z,5.00
2022-12-11T11:49:03.844Z,4.80
2022-12-11T11:51:35.645Z,4.80
2022-12-11T11:54:27.744Z,4.80
2022-12-11T11:56:57.959Z,4.80
2022-12-11T11:59:32.671Z,4.80
2022-12-11T12:02:01.532Z,4.70
2022-12-11T12:04:36.942Z,4.90
2022-12-11T12:07:20.855Z,5.00
2022-12-11T12:09:59.270Z,4.90
2022-12-11T12:12:40.087Z,5.00
2022-12-11T12:15:22.689Z,5.00
2022-12-11T12:17:56.018Z,4.90
2022-12-11T12:20:41.770Z,4.90
2022-12-11T12:23:36.301Z,4.80
2022-12-11T12:26:12.891Z,4.90
2022-12-11T12:28:52.049Z,4.80
2022-12-11T12:31:32.983Z,4.80
2022-12-11T12:34:10.871Z,4.70
2022-12-11T12:36:47.345Z,4.80
2022-12-11T12:39:29.867Z,4.80
2022-12-11T12:42:08.114Z,4.80
2022-12-11T12:44:43.908Z,4.80
2022-12-11T12:47:16.258Z,4.80
2022-12-11T12:49:47.420Z,4.70
2022-12-11T12:52:20.381Z,4.70
2022-12-11T12:55:06.150Z,4.80
2022-12-11T12:57:37.772Z,4.70
2022-12-11T13:00:13.180Z,4.70
2022-12-11T13:02:50.887Z,4.70
2022-12-11T13:05:24.419Z,4.80
2022-12-11T13:07:58.334Z,4.70
2022-12-11T13:10:31.287Z,4.60
2022-12-11T13:13:01.753Z,4.80
2022-12-11T13:15:43.720Z,4.80
2022-12-11T13:18:35.133Z,4.70
2022-12-11T13:21:04.831Z,4.70
2022-12-11T13:23:34.490Z,4.60
2022-12-11T13:26:04.820Z,4.70
2022-12-11T13:28:48.022Z,4.70
2022-12-11T13:31:33.669Z,4.70
2022-12-11T13:34:15.214Z,4.60
2022-12-11T13:36:49.149Z,4.60
2022-12-11T13:39:19.711Z,4.70
2022-12-11T13:41:51.621Z,4.70
2022-12-11T13:44:25.603Z,4.70
2022-12-11T13:46:56.850Z,4.60
2022-12-11T13:49:28.461Z,4.60
2022-12-11T13:51:58.826Z,4.60
2022-12-11T13:54:28.227Z,4.60
2022-12-11T13:56:59.818Z,4.50
2022-12-11T13:59:35.367Z,4.50
2022-12-11T14:02:16.349Z,4.50
2022-12-11T14:04:44.969Z,4.60
2022-12-11T14:07:13.519Z,4.60
2022-12-11T14:09:45.287Z,4.50
2022-12-11T14:12:19.190Z,4.50
2022-12-11T14:14:52.607Z,4.60
2022-12-11T14:17:26.730Z,4.50
2022-12-11T14:19:57.639Z,4.50
2022-12-11T14:22:27.836Z,4.50
2022-12-11T14:24:57.867Z,4.50
2022-12-11T14:27:28.758Z,4.50
2022-12-11T14:30:04.193Z,4.70
2022-12-11T14:32:38.252Z,4.60
2022-12-11T14:35:08.720Z,4.50
2022-12-11T14:37:39.694Z,4.50
2022-12-11T14:40:17.122Z,4.50
2022-12-11T14:42:48.654Z,4.50
2022-12-11T14:45:22.114Z,4.40
2022-12-11T14:47:51.918Z,4.40
2022-12-11T14:50:23.844Z,4.50
2022-12-11T14:52:54.985Z,4.40
2022-12-11T14:55:25.758Z,4.40
2022-12-11T14:57:59.290Z,4.30
2022-12-11T15:00:32.394Z,4.40
2022-12-11T15:03:02.398Z,4.40
2022-12-11T15:05:35.761Z,4.40
2022-12-11T15:08:24.825Z,4.30
2022-12-11T15:11:07.640Z,4.30
2022-12-11T15:13:38.702Z,4.30
2022-12-11T15:16:10.693Z,4.30
2022-12-11T15:18:42.561Z,4.20
2022-12-11T15:21:13.183Z,4.20
2022-12-11T15:23:51.968Z,4.20
2022-12-11T15:26:20.783Z,4.10
2022-12-11T15:28:49.191Z,4.10
2022-12-11T15:31:30.325Z,4.10
2022-12-11T15:33:59.223Z,4.10
2022-12-11T15:36:31.887Z,4.10
2022-12-11T15:39:00.219Z,4.10
2022-12-11T15:41:33.316Z,4.10
2022-12-11T15:44:03.477Z,4.10
2022-12-11T15:46:37.408Z,4.10
2022-12-11T15:49:13.699Z,4.00
2022-12-11T15:51:43.255Z,4.10
2022-12-11T15:54:11.772Z,4.10
2022-12-11T15:56:40.217Z,4.20
2022-12-11T15:59:08.437Z,3.90
2022-12-11T16:01:37.892Z,3.90
2022-12-11T16:04:06.286Z,3.90
2022-12-11T16:06:35.037Z,4.00
2022-12-11T16:09:05.145Z,3.90
2022-12-11T16:11:47.317Z,4.00
2022-12-11T16:14:15.336Z,3.80
2022-12-11T16:16:44.753Z,4.00
2022-12-11T16:19:12.783Z,3.90
2022-12-11T16:21:40.937Z,3.90
2022-12-11T16:24:09.193Z,3.90
2022-12-11T16:26:37.273Z,3.80
2022-12-11T16:29:05.324Z,3.80
2022-12-11T16:31:36.285Z,3.80
2022-12-11T16:34:05.983Z,3.80
2022-12-11T16:36:34.079Z,3.80
2022-12-11T16:39:02.191Z,3.80
2022-12-11T16:41:30.262Z,3.80
2022-12-11T16:44:03.675Z,3.70
2022-12-11T16:46:31.856Z,3.70
2022-12-11T16:48:59.854Z,3.60
2022-12-11T16:51:29.679Z,3.70
2022-12-11T16:53:58.241Z,3.70
2022-12-11T16:56:27.128Z,3.70
2022-12-11T16:58:57.830Z,3.60
2022-12-11T17:01:26.036Z,3.60
2022-12-11T17:03:54.260Z,3.60
2022-12-11T17:06:22.540Z,3.70
2022-12-11T17:08:52.613Z,3.60
2022-12-11T17:11:22.727Z,3.70
2022-12-11T17:13:57.907Z,3.70
2022-12-11T17:16:30.379Z,3.70
2022-12-11T17:18:59.071Z,3.70
2022-12-11T17:21:27.122Z,3.70
2022-12-11T17:23:56.789Z,3.70
2022-12-11T17:26:28.741Z,3.70
2022-12-11T17:28:58.566Z,3.70
2022-12-11T17:31:26.837Z,3.70
2022-12-11T17:33:58.409Z,3.70
2022-12-11T17:36:26.436Z,3.70
2022-12-11T17:38:56.992Z,3.70
2022-12-11T17:41:25.431Z,3.70
2022-12-11T17:43:58.055Z,3.70
2022-12-11T17:46:26.422Z,3.70
2022-12-11T17:48:54.507Z,3.70
2022-12-11T17:51:24.571Z,3.80
2022-12-11T17:53:53.029Z,3.80
2022-12-11T17:56:22.721Z,3.60
2022-12-11T17:58:51.055Z,3.60
2022-12-11T18:01:19.394Z,3.70
2022-12-11T18:03:47.964Z,3.70
2022-12-11T18:06:17.639Z,3.70
2022-12-11T18:08:46.218Z,3.70
2022-12-11T18:11:16.884Z,3.70
2022-12-11T18:13:47.274Z,3.70
2022-12-11T18:16:18.121Z,3.70
2022-12-11T18:18:47.431Z,3.70
2022-12-11T18:21:17.613Z,3.60
2022-12-11T18:23:46.746Z,3.60
2022-12-11T18:26:15.697Z,3.60
2022-12-11T18:28:44.032Z,3.60
2022-12-11T18:31:13.954Z,3.60
2022-12-11T18:33:44.021Z,3.60
2022-12-11T18:36:14.601Z,3.70
2022-12-11T18:38:43.387Z,3.50
2022-12-11T18:41:13.190Z,3.50
2022-12-11T18:43:42.635Z,3.50
2022-12-11T18:46:14.412Z,3.50
2022-12-11T18:48:45.783Z,3.50
2022-12-11T18:51:17.260Z,3.50
2022-12-11T18:53:46.014Z,3.50
2022-12-11T18:56:24.001Z,3.40
2022-12-11T18:58:54.162Z,3.40
2022-12-11T19:01:30.626Z,3.40
2022-12-11T19:04:06.504Z,3.40
2022-12-11T19:06:40.114Z,3.50
2022-12-11T19:09:10.417Z,3.50
2022-12-11T19:11:41.957Z,3.50
2022-12-11T19:14:10.956Z,3.50
2022-12-11T19:16:41.538Z,3.50
2022-12-11T19:19:14.788Z,3.60
2022-12-11T19:21:46.723Z,3.40
2022-12-11T19:24:21.544Z,3.50
2022-12-11T19:26:50.773Z,3.50
2022-12-11T19:29:22.029Z,3.40
2022-12-11T19:31:50.124Z,3.40
2022-12-11T19:34:21.576Z,3.30
2022-12-11T19:36:50.127Z,3.40
2022-12-11T19:39:19.676Z,3.40
2022-12-11T19:41:48.072Z,3.30
2022-12-11T19:44:16.097Z,3.30
2022-12-11T19:46:44.203Z,3.30
2022-12-11T19:49:13.205Z,3.30
2022-12-11T19:51:44.256Z,3.30
2022-12-11T19:54:15.246Z,3.40
2022-12-11T19:56:43.966Z,3.40
2022-12-11T19:59:15.781Z,3.40
2022-12-11T20:01:48.872Z,3.40
2022-12-11T20:04:20.187Z,3.40
2022-12-11T20:06:50.066Z,3.40
2022-12-11T20:09:18.975Z,3.40
2022-12-11T20:11:48.617Z,3.40
2022-12-11T20:14:21.167Z,3.40
2022-12-11T20:19:37.831Z,3.50
2022-12-11T20:22:10.209Z,3.40
2022-12-11T20:24:38.333Z,3.30
2022-12-11T20:27:06.828Z,3.40
2022-12-11T20:29:34.902Z,3.40
2022-12-11T20:32:09.288Z,3.30
2022-12-11T20:34:37.407Z,3.50
2022-12-11T20:37:07.828Z,3.40
2022-12-11T20:39:36.091Z,3.40
2022-12-11T20:42:05.159Z,3.50
2022-12-11T20:44:33.353Z,3.40
2022-12-11T20:47:01.375Z,3.40
2022-12-11T20:49:29.444Z,3.30
2022-12-11T20:51:59.771Z,3.30
2022-12-11T20:54:29.897Z,3.30
2022-12-11T20:57:00.711Z,3.30
2022-12-11T20:59:33.573Z,3.40
2022-12-11T21:02:01.754Z,3.20
2022-12-11T21:04:29.920Z,3.40
2022-12-11T21:06:58.281Z,3.30
2022-12-11T21:09:31.064Z,3.30
2022-12-11T21:12:00.903Z,3.20
2022-12-11T21:14:30.232Z,3.30
2022-12-11T21:16:58.573Z,3.30
2022-12-11T21:19:27.244Z,3.20
2022-12-11T21:21:56.655Z,3.20
2022-12-11T21:24:27.989Z,3.20
2022-12-11T21:26:59.148Z,3.20
2022-12-11T21:29:29.347Z,3.20
2022-12-11T21:31:58.342Z,3.30
2022-12-11T21:34:26.597Z,3.30
2022-12-11T21:36:56.912Z,3.30
2022-12-11T21:39:26.267Z,3.30
2022-12-11T21:41:54.394Z,3.20
2022-12-11T21:47:12.107Z,3.20
2022-12-11T21:49:40.298Z,3.20
2022-12-11T21:52:09.552Z,3.20
2022-12-11T21:54:37.872Z,3.30
2022-12-11T21:57:08.163Z,3.30
2022-12-11T21:59:40.719Z,3.30
2022-12-11T22:02:11.228Z,3.30
2022-12-11T22:04:39.455Z,3.40
2022-12-11T22:07:07.569Z,3.40
2022-12-11T22:09:35.489Z,3.40
2022-12-11T22:12:03.466Z,3.50
2022-12-11T22:14:34.674Z,3.50
2022-12-11T22:17:04.094Z,3.50
2022-12-11T22:19:32.849Z,3.40
2022-12-11T22:22:01.169Z,3.50
2022-12-11T22:24:29.523Z,3.50
2022-12-11T22:27:00.705Z,3.40
2022-12-11T22:29:28.740Z,3.40
2022-12-11T22:31:56.849Z,3.50
2022-12-11T22:34:26.535Z,3.40
2022-12-11T22:36:54.725Z,3.50
2022-12-11T22:39:22.705Z,3.50
2022-12-11T22:41:50.820Z,3.50
2022-12-11T22:44:21.171Z,3.50
2022-12-11T22:46:50.741Z,3.40
2022-12-11T22:49:19.828Z,3.50
2022-12-11T22:51:50.111Z,3.50
2022-12-11T22:54:18.506Z,3.40
2022-12-11T22:56:46.579Z,3.50
2022-12-11T22:59:14.957Z,3.50
2022-12-11T23:01:43.466Z,3.60
2022-12-11T23:04:11.511Z,3.50
2022-12-11T23:06:40.522Z,3.50
2022-12-11T23:09:11.810Z,3.50
2022-12-11T23:11:40.152Z,3.60
2022-12-11T23:14:09.919Z,3.60
2022-12-11T23:16:38.281Z,3.80
2022-12-11T23:19:06.624Z,3.60
2022-12-11T23:21:34.904Z,3.70
2022-12-11T23:24:03.044Z,3.60
2022-12-11T23:26:32.964Z,3.60
2022-12-11T23:29:01.292Z,3.60
2022-12-11T23:31:30.120Z,3.60
2022-12-11T23:33:58.930Z,3.60
2022-12-11T23:36:28.951Z,3.60
2022-12-11T23:38:57.445Z,3.80
2022-12-11T23:41:26.523Z,3.70
2022-12-11T23:43:55.929Z,3.70
2022-12-11T23:46:25.630Z,3.80
2022-12-11T23:48:54.681Z,3.70
2022-12-11T23:51:24.204Z,3.70
2022-12-11T23:53:52.920Z,3.70
2022-12-11T23:56:25.122Z,3.80
2022-12-11T23:58:53.937Z,3.60
